TimeCDT,TemperatureF,Dew PointF,Humidity,Sea Level PressureIn,VisibilityMPH,Wind Direction,Wind SpeedMPH,Gust SpeedMPH,PrecipitationIn,Events,Conditions,WindDirDegrees,DateUTC
12:54 AM,39.9,33.1,77,30.14,10.0,Calm,Calm,-,N/A,,Clear,0,2013-05-13 05:54:00
1:54 AM,37.9,32.0,79,30.14,10.0,Calm,Calm,-,N/A,,Clear,0,2013-05-13 06:54:00
2:54 AM,35.1,30.0,82,30.14,10.0,ENE,3.5,-,N/A,,Clear,70,2013-05-13 07:54:00
3:54 AM,35.1,30.0,82,30.15,10.0,Calm,Calm,-,N/A,,Clear,0,2013-05-13 08:54:00
4:54 AM,35.1,30.9,85,30.15,10.0,Calm,Calm,-,N/A,,Clear,0,2013-05-13 09:54:00
5:54 AM,33.1,30.9,92,30.17,10.0,Calm,Calm,-,N/A,,Partly Cloudy,0,2013-05-13 10:54:00
6:54 AM,37.9,33.1,83,30.18,10.0,Calm,Calm,-,N/A,,Partly Cloudy,0,2013-05-13 11:54:00
7:54 AM,43.0,35.1,74,30.20,10.0,Calm,Calm,-,N/A,,Partly Cloudy,0,2013-05-13 12:54:00
8:54 AM,50.0,35.1,57,30.21,10.0,Calm,Calm,-,N/A,,Partly Cloudy,0,2013-05-13 13:54:00
9:54 AM,55.9,30.0,37,30.20,10.0,Variable,6.9,-,N/A,,Clear,0,2013-05-13 14:54:00
10:54 AM,57.9,27.0,31,30.20,10.0,Variable,6.9,-,N/A,,Partly Cloudy,0,2013-05-13 15:54:00
11:54 AM,60.1,26.1,27,30.19,10.0,West,3.5,-,N/A,,Partly Cloudy,260,2013-05-13 16:54:00
12:54 PM,63.0,25.0,24,30.17,10.0,NW,11.5,18.4,N/A,,Partly Cloudy,310,2013-05-13 17:54:00
1:54 PM,63.0,27.0,26,30.14,10.0,West,10.4,-,N/A,,Scattered Clouds,270,2013-05-13 18:54:00
3:54 PM,64.0,28.0,26,30.09,10.0,SSE,8.1,-,N/A,,Overcast,150,2013-05-13 20:54:00
4:54 PM,66.0,28.0,24,30.07,10.0,Variable,3.5,-,N/A,,Overcast,0,2013-05-13 21:54:00
5:54 PM,64.9,28.9,26,30.06,10.0,SW,5.8,-,N/A,,Overcast,230,2013-05-13 22:54:00
6:54 PM,62.6,30.2,30,30.02,10.0,South,10.4,-,N/A,,Overcast,180,2013-05-13 23:54:00
7:54 PM,63.0,32.0,31,30.03,10.0,SSW,6.9,-,N/A,,Overcast,200,2013-05-14 00:54:00
8:54 PM,60.1,35.1,39,30.04,10.0,West,3.5,-,N/A,,Overcast,260,2013-05-14 01:54:00
9:54 PM,57.9,37.9,47,30.04,10.0,SE,5.8,-,N/A,,Mostly Cloudy,140,2013-05-14 02:54:00
10:54 PM,57.0,36.0,45,30.01,10.0,South,9.2,-,N/A,,Scattered Clouds,170,2013-05-14 03:54:00
11:54 PM,55.9,37.0,49,29.97,10.0,South,11.5,-,N/A,,Partly Cloudy,180,2013-05-14 04:54:00